sensor_id;sensor_type;location;lat;lon;timestamp;P1;durP1;ratioP1;P2;durP2;ratioP2
22260;SDS011;11299;43.202;27.920;2022-07-15T00:00:32;16.90;;;6.28;;
22260;SDS011;11299;43.202;27.920;2022-07-15T00:02:58;27.08;;;6.07;;
22260;SDS011;11299;43.202;27.920;2022-07-15T00:05:24;16.70;;;5.80;;
22260;SDS011;11299;43.202;27.920;2022-07-15T00:07:50;15.75;;;6.00;;
22260;SDS011;11299;43.202;27.920;2022-07-15T00:10:16;20.80;;;5.65;;
22260;SDS011;11299;43.202;27.920;2022-07-15T00:12:56;16.80;;;5.72;;
22260;SDS011;11299;43.202;27.920;2022-07-15T00:15:24;14.35;;;4.95;;
22260;SDS011;11299;43.202;27.920;2022-07-15T00:17:51;14.35;;;4.75;;
22260;SDS011;11299;43.202;27.920;2022-07-15T00:20:18;16.48;;;4.60;;
22260;SDS011;11299;43.202;27.920;2022-07-15T00:22:45;16.10;;;4.97;;
22260;SDS011;11299;43.202;27.920;2022-07-15T00:25:12;15.10;;;5.30;;
22260;SDS011;11299;43.202;27.920;2022-07-15T00:27:51;16.23;;;5.70;;
22260;SDS011;11299;43.202;27.920;2022-07-15T00:30:18;19.40;;;6.47;;
22260;SDS011;11299;43.202;27.920;2022-07-15T00:32:44;21.17;;;5.95;;
22260;SDS011;11299;43.202;27.920;2022-07-15T00:35:10;13.82;;;6.30;;
22260;SDS011;11299;43.202;27.920;2022-07-15T00:37:35;16.70;;;5.82;;
22260;SDS011;11299;43.202;27.920;2022-07-15T00:40:01;13.82;;;6.18;;
22260;SDS011;11299;43.202;27.920;2022-07-15T00:42:26;14.18;;;5.55;;
22260;SDS011;11299;43.202;27.920;2022-07-15T00:45:14;14.88;;;5.68;;
22260;SDS011;11299;43.202;27.920;2022-07-15T00:47:42;18.80;;;5.97;;
22260;SDS011;11299;43.202;27.920;2022-07-15T00:50:08;17.67;;;5.70;;
22260;SDS011;11299;43.202;27.920;2022-07-15T00:52:34;15.93;;;5.50;;
22260;SDS011;11299;43.202;27.920;2022-07-15T00:55:04;13.35;;;5.43;;
22260;SDS011;11299;43.202;27.920;2022-07-15T00:57:31;15.07;;;6.10;;
22260;SDS011;11299;43.202;27.920;2022-07-15T01:00:01;26.52;;;5.90;;
22260;SDS011;11299;43.202;27.920;2022-07-15T01:02:30;13.27;;;5.60;;
22260;SDS011;11299;43.202;27.920;2022-07-15T01:04:58;14.98;;;6.68;;
22260;SDS011;11299;43.202;27.920;2022-07-15T01:07:25;14.98;;;6.03;;
22260;SDS011;11299;43.202;27.920;2022-07-15T01:09:51;21.55;;;6.25;;
22260;SDS011;11299;43.202;27.920;2022-07-15T01:12:16;15.07;;;6.75;;
22260;SDS011;11299;43.202;27.920;2022-07-15T01:14:42;15.90;;;6.15;;
22260;SDS011;11299;43.202;27.920;2022-07-15T01:17:11;13.68;;;5.65;;
22260;SDS011;11299;43.202;27.920;2022-07-15T01:19:37;20.55;;;6.25;;
22260;SDS011;11299;43.202;27.920;2022-07-15T01:22:04;12.38;;;5.82;;
22260;SDS011;11299;43.202;27.920;2022-07-15T01:24:30;18.77;;;5.68;;
22260;SDS011;11299;43.202;27.920;2022-07-15T01:26:56;26.85;;;6.28;;
22260;SDS011;11299;43.202;27.920;2022-07-15T01:29:22;20.70;;;5.35;;
22260;SDS011;11299;43.202;27.920;2022-07-15T01:31:47;13.02;;;5.80;;
22260;SDS011;11299;43.202;27.920;2022-07-15T01:34:13;14.50;;;5.18;;
22260;SDS011;11299;43.202;27.920;2022-07-15T01:36:38;13.90;;;4.95;;
22260;SDS011;11299;43.202;27.920;2022-07-15T01:39:04;14.85;;;5.28;;
22260;SDS011;11299;43.202;27.920;2022-07-15T01:41:29;15.57;;;5.57;;
22260;SDS011;11299;43.202;27.920;2022-07-15T01:43:55;20.35;;;5.55;;
22260;SDS011;11299;43.202;27.920;2022-07-15T01:46:20;12.00;;;5.13;;
22260;SDS011;11299;43.202;27.920;2022-07-15T01:48:46;12.57;;;5.20;;
22260;SDS011;11299;43.202;27.920;2022-07-15T01:51:30;21.10;;;6.05;;
22260;SDS011;11299;43.202;27.920;2022-07-15T01:53:55;15.15;;;6.07;;
22260;SDS011;11299;43.202;27.920;2022-07-15T01:56:21;18.15;;;6.07;;
22260;SDS011;11299;43.202;27.920;2022-07-15T01:58:48;19.45;;;5.97;;
22260;SDS011;11299;43.202;27.920;2022-07-15T02:01:14;18.25;;;6.85;;
22260;SDS011;11299;43.202;27.920;2022-07-15T02:03:43;13.27;;;5.45;;
22260;SDS011;11299;43.202;27.920;2022-07-15T02:06:09;18.23;;;6.32;;
22260;SDS011;11299;43.202;27.920;2022-07-15T02:08:34;19.35;;;6.63;;
22260;SDS011;11299;43.202;27.920;2022-07-15T02:11:00;23.88;;;6.97;;
22260;SDS011;11299;43.202;27.920;2022-07-15T02:13:25;27.58;;;7.63;;
22260;SDS011;11299;43.202;27.920;2022-07-15T02:15:51;22.85;;;7.50;;
22260;SDS011;11299;43.202;27.920;2022-07-15T02:18:17;22.33;;;7.63;;
22260;SDS011;11299;43.202;27.920;2022-07-15T02:20:42;17.77;;;6.70;;
22260;SDS011;11299;43.202;27.920;2022-07-15T02:23:08;28.65;;;7.90;;
22260;SDS011;11299;43.202;27.920;2022-07-15T02:25:34;29.98;;;8.35;;
22260;SDS011;11299;43.202;27.920;2022-07-15T02:28:01;28.30;;;8.20;;
22260;SDS011;11299;43.202;27.920;2022-07-15T02:30:33;25.27;;;8.63;;
22260;SDS011;11299;43.202;27.920;2022-07-15T02:33:01;25.58;;;8.20;;
22260;SDS011;11299;43.202;27.920;2022-07-15T02:35:28;20.35;;;8.15;;
22260;SDS011;11299;43.202;27.920;2022-07-15T02:37:54;33.38;;;8.68;;
22260;SDS011;11299;43.202;27.920;2022-07-15T02:40:20;25.20;;;8.95;;
22260;SDS011;11299;43.202;27.920;2022-07-15T02:42:49;36.00;;;8.88;;
22260;SDS011;11299;43.202;27.920;2022-07-15T02:45:18;30.73;;;8.93;;
22260;SDS011;11299;43.202;27.920;2022-07-15T02:47:45;26.70;;;9.00;;
22260;SDS011;11299;43.202;27.920;2022-07-15T02:50:11;32.20;;;8.98;;
22260;SDS011;11299;43.202;27.920;2022-07-15T02:52:36;32.78;;;9.50;;
22260;SDS011;11299;43.202;27.920;2022-07-15T02:55:02;29.73;;;8.55;;
22260;SDS011;11299;43.202;27.920;2022-07-15T02:57:28;30.83;;;8.85;;
22260;SDS011;11299;43.202;27.920;2022-07-15T02:59:54;30.45;;;9.48;;
22260;SDS011;11299;43.202;27.920;2022-07-15T03:02:20;27.20;;;8.48;;
22260;SDS011;11299;43.202;27.920;2022-07-15T03:04:45;34.40;;;9.57;;
22260;SDS011;11299;43.202;27.920;2022-07-15T03:07:12;35.53;;;9.90;;
22260;SDS011;11299;43.202;27.920;2022-07-15T03:09:38;30.23;;;9.98;;
22260;SDS011;11299;43.202;27.920;2022-07-15T03:12:03;38.20;;;10.63;;
22260;SDS011;11299;43.202;27.920;2022-07-15T03:14:29;34.25;;;11.48;;
22260;SDS011;11299;43.202;27.920;2022-07-15T03:16:55;46.78;;;11.85;;
22260;SDS011;11299;43.202;27.920;2022-07-15T03:19:20;44.65;;;12.90;;
22260;SDS011;11299;43.202;27.920;2022-07-15T03:21:46;45.85;;;12.75;;
22260;SDS011;11299;43.202;27.920;2022-07-15T03:24:15;46.97;;;11.23;;
22260;SDS011;11299;43.202;27.920;2022-07-15T03:26:41;46.75;;;11.75;;
22260;SDS011;11299;43.202;27.920;2022-07-15T03:29:07;35.20;;;11.30;;
22260;SDS011;11299;43.202;27.920;2022-07-15T03:31:33;45.15;;;10.75;;
22260;SDS011;11299;43.202;27.920;2022-07-15T03:33:59;45.13;;;11.88;;
22260;SDS011;11299;43.202;27.920;2022-07-15T03:36:24;46.92;;;10.73;;
22260;SDS011;11299;43.202;27.920;2022-07-15T03:38:50;47.33;;;10.45;;
22260;SDS011;11299;43.202;27.920;2022-07-15T03:41:17;38.75;;;9.77;;
22260;SDS011;11299;43.202;27.920;2022-07-15T03:43:47;36.35;;;8.25;;
22260;SDS011;11299;43.202;27.920;2022-07-15T03:46:12;31.10;;;8.80;;
22260;SDS011;11299;43.202;27.920;2022-07-15T03:48:41;27.42;;;8.27;;
22260;SDS011;11299;43.202;27.920;2022-07-15T03:51:07;38.03;;;8.63;;
22260;SDS011;11299;43.202;27.920;2022-07-15T03:53:33;29.10;;;8.88;;
22260;SDS011;11299;43.202;27.920;2022-07-15T03:55:58;34.55;;;12.05;;
22260;SDS011;11299;43.202;27.920;2022-07-15T03:58:24;43.80;;;15.52;;
22260;SDS011;11299;43.202;27.920;2022-07-15T04:00:49;52.28;;;20.02;;
22260;SDS011;11299;43.202;27.920;2022-07-15T04:03:15;43.10;;;20.10;;
22260;SDS011;11299;43.202;27.920;2022-07-15T04:05:42;36.22;;;18.25;;
22260;SDS011;11299;43.202;27.920;2022-07-15T04:08:08;39.42;;;16.20;;
22260;SDS011;11299;43.202;27.920;2022-07-15T04:10:33;41.47;;;14.10;;
22260;SDS011;11299;43.202;27.920;2022-07-15T04:12:59;39.83;;;13.05;;
22260;SDS011;11299;43.202;27.920;2022-07-15T04:15:25;45.22;;;12.55;;
22260;SDS011;11299;43.202;27.920;2022-07-15T04:17:50;46.50;;;13.90;;
22260;SDS011;11299;43.202;27.920;2022-07-15T04:20:16;36.35;;;12.63;;
22260;SDS011;11299;43.202;27.920;2022-07-15T04:22:42;39.55;;;12.05;;
22260;SDS011;11299;43.202;27.920;2022-07-15T04:25:09;46.35;;;10.85;;
22260;SDS011;11299;43.202;27.920;2022-07-15T04:27:36;31.45;;;10.63;;
22260;SDS011;11299;43.202;27.920;2022-07-15T04:30:02;29.23;;;13.98;;
22260;SDS011;11299;43.202;27.920;2022-07-15T04:32:30;33.95;;;15.73;;
22260;SDS011;11299;43.202;27.920;2022-07-15T04:34:56;43.03;;;15.20;;
22260;SDS011;11299;43.202;27.920;2022-07-15T04:37:22;40.20;;;13.68;;
22260;SDS011;11299;43.202;27.920;2022-07-15T04:39:47;30.35;;;11.85;;
22260;SDS011;11299;43.202;27.920;2022-07-15T04:42:13;29.70;;;10.90;;
22260;SDS011;11299;43.202;27.920;2022-07-15T04:44:39;28.95;;;9.93;;
22260;SDS011;11299;43.202;27.920;2022-07-15T04:47:05;23.40;;;8.70;;
22260;SDS011;11299;43.202;27.920;2022-07-15T04:49:30;33.70;;;9.05;;
22260;SDS011;11299;43.202;27.920;2022-07-15T04:52:15;22.25;;;8.80;;
22260;SDS011;11299;43.202;27.920;2022-07-15T04:54:41;23.35;;;8.55;;
22260;SDS011;11299;43.202;27.920;2022-07-15T04:57:06;27.77;;;8.82;;
22260;SDS011;11299;43.202;27.920;2022-07-15T04:59:32;19.08;;;8.23;;
22260;SDS011;11299;43.202;27.920;2022-07-15T05:01:58;31.83;;;9.85;;
22260;SDS011;11299;43.202;27.920;2022-07-15T05:04:23;23.63;;;9.00;;
22260;SDS011;11299;43.202;27.920;2022-07-15T05:06:49;32.30;;;8.38;;
22260;SDS011;11299;43.202;27.920;2022-07-15T05:09:15;27.38;;;8.30;;
22260;SDS011;11299;43.202;27.920;2022-07-15T05:11:40;22.02;;;8.32;;
22260;SDS011;11299;43.202;27.920;2022-07-15T05:14:06;19.73;;;8.32;;
22260;SDS011;11299;43.202;27.920;2022-07-15T05:16:31;25.45;;;7.80;;
22260;SDS011;11299;43.202;27.920;2022-07-15T05:18:57;20.33;;;7.68;;
22260;SDS011;11299;43.202;27.920;2022-07-15T05:21:23;26.05;;;7.18;;
22260;SDS011;11299;43.202;27.920;2022-07-15T05:23:48;21.05;;;7.50;;
22260;SDS011;11299;43.202;27.920;2022-07-15T05:26:13;21.08;;;7.65;;
22260;SDS011;11299;43.202;27.920;2022-07-15T05:28:39;23.40;;;7.03;;
22260;SDS011;11299;43.202;27.920;2022-07-15T05:31:06;14.90;;;7.18;;
22260;SDS011;11299;43.202;27.920;2022-07-15T05:33:32;17.02;;;7.05;;
22260;SDS011;11299;43.202;27.920;2022-07-15T05:35:57;26.40;;;6.93;;
22260;SDS011;11299;43.202;27.920;2022-07-15T05:38:24;19.10;;;6.90;;
22260;SDS011;11299;43.202;27.920;2022-07-15T05:40:50;28.50;;;8.13;;
22260;SDS011;11299;43.202;27.920;2022-07-15T05:43:15;22.85;;;7.45;;
22260;SDS011;11299;43.202;27.920;2022-07-15T05:45:41;24.42;;;7.32;;
22260;SDS011;11299;43.202;27.920;2022-07-15T05:48:07;20.95;;;7.82;;
22260;SDS011;11299;43.202;27.920;2022-07-15T05:50:33;17.45;;;7.63;;
22260;SDS011;11299;43.202;27.920;2022-07-15T05:52:58;22.13;;;6.95;;
22260;SDS011;11299;43.202;27.920;2022-07-15T05:55:24;18.15;;;6.53;;
22260;SDS011;11299;43.202;27.920;2022-07-15T05:57:50;22.48;;;6.57;;
22260;SDS011;11299;43.202;27.920;2022-07-15T06:00:15;20.83;;;6.97;;
22260;SDS011;11299;43.202;27.920;2022-07-15T06:02:41;17.20;;;7.25;;
22260;SDS011;11299;43.202;27.920;2022-07-15T06:05:08;19.27;;;5.97;;
22260;SDS011;11299;43.202;27.920;2022-07-15T06:07:34;15.43;;;6.63;;
22260;SDS011;11299;43.202;27.920;2022-07-15T06:10:02;18.55;;;7.18;;
22260;SDS011;11299;43.202;27.920;2022-07-15T06:12:28;22.33;;;7.45;;
22260;SDS011;11299;43.202;27.920;2022-07-15T06:14:54;26.25;;;7.07;;
22260;SDS011;11299;43.202;27.920;2022-07-15T06:17:20;20.60;;;6.55;;
22260;SDS011;11299;43.202;27.920;2022-07-15T06:19:45;23.00;;;6.45;;
22260;SDS011;11299;43.202;27.920;2022-07-15T06:22:11;25.33;;;6.45;;
22260;SDS011;11299;43.202;27.920;2022-07-15T06:24:37;22.42;;;6.70;;
22260;SDS011;11299;43.202;27.920;2022-07-15T06:27:03;18.33;;;5.80;;
22260;SDS011;11299;43.202;27.920;2022-07-15T06:29:29;24.23;;;6.57;;
22260;SDS011;11299;43.202;27.920;2022-07-15T06:31:54;26.17;;;6.30;;
22260;SDS011;11299;43.202;27.920;2022-07-15T06:34:20;17.05;;;5.95;;
22260;SDS011;11299;43.202;27.920;2022-07-15T06:36:45;19.70;;;5.60;;
22260;SDS011;11299;43.202;27.920;2022-07-15T06:39:11;17.00;;;5.50;;
22260;SDS011;11299;43.202;27.920;2022-07-15T06:41:36;18.70;;;6.55;;
22260;SDS011;11299;43.202;27.920;2022-07-15T06:44:02;15.23;;;6.00;;
22260;SDS011;11299;43.202;27.920;2022-07-15T06:46:29;17.55;;;6.20;;
22260;SDS011;11299;43.202;27.920;2022-07-15T06:48:54;18.98;;;5.70;;
22260;SDS011;11299;43.202;27.920;2022-07-15T06:51:21;16.45;;;4.82;;
22260;SDS011;11299;43.202;27.920;2022-07-15T06:53:47;18.63;;;5.60;;
22260;SDS011;11299;43.202;27.920;2022-07-15T06:56:12;19.25;;;5.53;;
22260;SDS011;11299;43.202;27.920;2022-07-15T06:58:38;13.25;;;5.38;;
22260;SDS011;11299;43.202;27.920;2022-07-15T07:01:04;11.75;;;3.75;;
22260;SDS011;11299;43.202;27.920;2022-07-15T07:03:30;10.73;;;4.72;;
22260;SDS011;11299;43.202;27.920;2022-07-15T07:05:55;8.93;;;3.00;;
22260;SDS011;11299;43.202;27.920;2022-07-15T07:08:21;6.35;;;3.30;;
22260;SDS011;11299;43.202;27.920;2022-07-15T07:10:46;5.47;;;3.17;;
22260;SDS011;11299;43.202;27.920;2022-07-15T07:13:12;5.05;;;2.30;;
22260;SDS011;11299;43.202;27.920;2022-07-15T07:15:38;10.63;;;2.95;;
22260;SDS011;11299;43.202;27.920;2022-07-15T07:18:03;13.73;;;3.13;;
22260;SDS011;11299;43.202;27.920;2022-07-15T07:20:29;5.25;;;2.63;;
22260;SDS011;11299;43.202;27.920;2022-07-15T07:22:55;5.78;;;3.05;;
22260;SDS011;11299;43.202;27.920;2022-07-15T07:25:22;9.63;;;3.10;;
22260;SDS011;11299;43.202;27.920;2022-07-15T07:27:48;9.07;;;3.92;;
22260;SDS011;11299;43.202;27.920;2022-07-15T07:30:13;7.60;;;3.72;;
22260;SDS011;11299;43.202;27.920;2022-07-15T07:32:39;13.23;;;3.33;;
22260;SDS011;11299;43.202;27.920;2022-07-15T07:35:04;4.78;;;2.75;;
22260;SDS011;11299;43.202;27.920;2022-07-15T07:37:34;8.35;;;3.17;;
22260;SDS011;11299;43.202;27.920;2022-07-15T07:40:00;10.27;;;3.42;;
22260;SDS011;11299;43.202;27.920;2022-07-15T07:42:25;12.63;;;3.65;;
22260;SDS011;11299;43.202;27.920;2022-07-15T07:44:51;18.08;;;4.22;;
22260;SDS011;11299;43.202;27.920;2022-07-15T07:47:16;11.90;;;3.28;;
22260;SDS011;11299;43.202;27.920;2022-07-15T07:49:42;8.75;;;4.30;;
22260;SDS011;11299;43.202;27.920;2022-07-15T07:52:09;9.35;;;4.75;;
22260;SDS011;11299;43.202;27.920;2022-07-15T07:54:34;15.50;;;4.53;;
22260;SDS011;11299;43.202;27.920;2022-07-15T07:57:00;12.20;;;4.05;;
22260;SDS011;11299;43.202;27.920;2022-07-15T07:59:26;10.18;;;3.63;;
22260;SDS011;11299;43.202;27.920;2022-07-15T08:01:52;8.98;;;2.72;;
22260;SDS011;11299;43.202;27.920;2022-07-15T08:04:17;6.75;;;2.53;;
22260;SDS011;11299;43.202;27.920;2022-07-15T08:06:43;4.95;;;2.35;;
22260;SDS011;11299;43.202;27.920;2022-07-15T08:09:09;7.82;;;2.13;;
22260;SDS011;11299;43.202;27.920;2022-07-15T08:11:34;6.65;;;2.13;;
22260;SDS011;11299;43.202;27.920;2022-07-15T08:14:00;8.85;;;2.30;;
22260;SDS011;11299;43.202;27.920;2022-07-15T08:16:25;5.22;;;1.98;;
22260;SDS011;11299;43.202;27.920;2022-07-15T08:18:52;7.93;;;2.47;;
22260;SDS011;11299;43.202;27.920;2022-07-15T08:21:18;9.23;;;3.55;;
22260;SDS011;11299;43.202;27.920;2022-07-15T08:23:43;6.00;;;2.17;;
22260;SDS011;11299;43.202;27.920;2022-07-15T08:26:09;14.43;;;7.50;;
22260;SDS011;11299;43.202;27.920;2022-07-15T08:28:35;2.80;;;2.00;;
22260;SDS011;11299;43.202;27.920;2022-07-15T08:31:01;4.05;;;2.22;;
22260;SDS011;11299;43.202;27.920;2022-07-15T08:33:27;4.45;;;2.30;;
22260;SDS011;11299;43.202;27.920;2022-07-15T08:35:53;6.45;;;2.28;;
22260;SDS011;11299;43.202;27.920;2022-07-15T08:38:18;3.90;;;2.30;;
22260;SDS011;11299;43.202;27.920;2022-07-15T08:40:44;3.97;;;2.38;;
22260;SDS011;11299;43.202;27.920;2022-07-15T08:43:10;4.05;;;2.60;;
22260;SDS011;11299;43.202;27.920;2022-07-15T08:45:37;5.15;;;3.08;;
22260;SDS011;11299;43.202;27.920;2022-07-15T08:48:04;4.70;;;2.45;;
22260;SDS011;11299;43.202;27.920;2022-07-15T08:50:32;7.65;;;2.67;;
22260;SDS011;11299;43.202;27.920;2022-07-15T08:52:59;8.85;;;2.38;;
22260;SDS011;11299;43.202;27.920;2022-07-15T08:55:24;4.90;;;2.28;;
22260;SDS011;11299;43.202;27.920;2022-07-15T08:57:51;5.15;;;2.40;;
22260;SDS011;11299;43.202;27.920;2022-07-15T09:00:21;6.82;;;2.75;;
22260;SDS011;11299;43.202;27.920;2022-07-15T09:02:54;4.13;;;2.72;;
22260;SDS011;11299;43.202;27.920;2022-07-15T09:05:25;6.22;;;3.00;;
22260;SDS011;11299;43.202;27.920;2022-07-15T09:10:43;7.15;;;3.15;;
22260;SDS011;11299;43.202;27.920;2022-07-15T09:13:12;9.30;;;3.67;;
22260;SDS011;11299;43.202;27.920;2022-07-15T09:15:46;5.63;;;2.72;;
22260;SDS011;11299;43.202;27.920;2022-07-15T09:18:13;4.03;;;2.38;;
22260;SDS011;11299;43.202;27.920;2022-07-15T09:20:41;5.60;;;2.78;;
22260;SDS011;11299;43.202;27.920;2022-07-15T09:23:08;3.60;;;2.45;;
22260;SDS011;11299;43.202;27.920;2022-07-15T09:25:36;3.45;;;2.65;;
22260;SDS011;11299;43.202;27.920;2022-07-15T09:28:04;8.02;;;2.78;;
22260;SDS011;11299;43.202;27.920;2022-07-15T09:30:32;5.32;;;2.50;;
22260;SDS011;11299;43.202;27.920;2022-07-15T09:33:22;21.75;;;3.53;;
22260;SDS011;11299;43.202;27.920;2022-07-15T09:38:59;3.78;;;2.60;;
22260;SDS011;11299;43.202;27.920;2022-07-15T09:46:44;10.75;;;6.45;;
22260;SDS011;11299;43.202;27.920;2022-07-15T09:49:17;4.75;;;2.05;;
22260;SDS011;11299;43.202;27.920;2022-07-15T09:52:15;2.78;;;2.25;;
22260;SDS011;11299;43.202;27.920;2022-07-15T09:54:48;4.15;;;1.67;;
22260;SDS011;11299;43.202;27.920;2022-07-15T09:57:14;3.55;;;2.20;;
22260;SDS011;11299;43.202;27.920;2022-07-15T09:59:42;6.00;;;2.30;;
22260;SDS011;11299;43.202;27.920;2022-07-15T10:02:09;3.63;;;2.00;;
22260;SDS011;11299;43.202;27.920;2022-07-15T10:04:35;4.70;;;2.00;;
22260;SDS011;11299;43.202;27.920;2022-07-15T10:07:02;3.28;;;2.33;;
22260;SDS011;11299;43.202;27.920;2022-07-15T10:09:30;5.13;;;2.03;;
22260;SDS011;11299;43.202;27.920;2022-07-15T10:11:59;5.60;;;2.22;;
22260;SDS011;11299;43.202;27.920;2022-07-15T10:14:35;4.00;;;2.00;;
22260;SDS011;11299;43.202;27.920;2022-07-15T10:28:10;7.03;;;2.30;;
22260;SDS011;11299;43.202;27.920;2022-07-15T10:30:39;4.03;;;1.90;;
22260;SDS011;11299;43.202;27.920;2022-07-15T10:43:39;3.42;;;2.08;;
22260;SDS011;11299;43.202;27.920;2022-07-15T10:46:13;7.15;;;1.95;;
22260;SDS011;11299;43.202;27.920;2022-07-15T10:48:43;7.45;;;2.00;;
22260;SDS011;11299;43.202;27.920;2022-07-15T10:51:10;2.50;;;1.88;;
22260;SDS011;11299;43.202;27.920;2022-07-15T10:53:46;6.65;;;2.05;;
22260;SDS011;11299;43.202;27.920;2022-07-15T10:56:29;4.07;;;1.88;;
22260;SDS011;11299;43.202;27.920;2022-07-15T11:01:35;3.17;;;1.80;;
22260;SDS011;11299;43.202;27.920;2022-07-15T11:04:12;4.47;;;2.38;;
22260;SDS011;11299;43.202;27.920;2022-07-15T11:07:39;5.20;;;2.47;;
22260;SDS011;11299;43.202;27.920;2022-07-15T11:09:50;8.90;;;3.03;;
22260;SDS011;11299;43.202;27.920;2022-07-15T11:12:19;7.90;;;2.78;;
22260;SDS011;11299;43.202;27.920;2022-07-15T11:14:46;11.77;;;3.05;;
22260;SDS011;11299;43.202;27.920;2022-07-15T11:17:28;4.07;;;2.10;;
22260;SDS011;11299;43.202;27.920;2022-07-15T11:22:34;6.38;;;2.75;;
22260;SDS011;11299;43.202;27.920;2022-07-15T11:25:02;4.50;;;2.22;;
22260;SDS011;11299;43.202;27.920;2022-07-15T11:27:32;7.80;;;3.20;;
22260;SDS011;11299;43.202;27.920;2022-07-15T11:29:58;5.47;;;2.38;;
22260;SDS011;11299;43.202;27.920;2022-07-15T11:32:30;3.45;;;1.95;;
22260;SDS011;11299;43.202;27.920;2022-07-15T11:34:58;4.28;;;1.83;;
22260;SDS011;11299;43.202;27.920;2022-07-15T11:37:28;3.25;;;1.60;;
22260;SDS011;11299;43.202;27.920;2022-07-15T11:40:15;4.80;;;1.67;;
22260;SDS011;11299;43.202;27.920;2022-07-15T11:43:20;3.80;;;1.52;;
22260;SDS011;11299;43.202;27.920;2022-07-15T11:46:05;3.97;;;1.48;;
22260;SDS011;11299;43.202;27.920;2022-07-15T11:48:38;1.98;;;1.38;;
22260;SDS011;11299;43.202;27.920;2022-07-15T11:51:04;2.80;;;1.55;;
22260;SDS011;11299;43.202;27.920;2022-07-15T11:53:38;4.05;;;1.45;;
22260;SDS011;11299;43.202;27.920;2022-07-15T11:56:06;5.43;;;1.30;;
22260;SDS011;11299;43.202;27.920;2022-07-15T11:58:41;1.98;;;1.08;;
22260;SDS011;11299;43.202;27.920;2022-07-15T12:01:11;5.10;;;1.40;;
22260;SDS011;11299;43.202;27.920;2022-07-15T12:03:43;3.53;;;1.42;;
22260;SDS011;11299;43.202;27.920;2022-07-15T12:06:17;1.87;;;1.40;;
22260;SDS011;11299;43.202;27.920;2022-07-15T12:11:19;4.78;;;1.40;;
22260;SDS011;11299;43.202;27.920;2022-07-15T12:13:49;4.18;;;1.60;;
22260;SDS011;11299;43.202;27.920;2022-07-15T12:16:17;3.20;;;1.55;;
22260;SDS011;11299;43.202;27.920;2022-07-15T12:18:46;2.90;;;1.40;;
22260;SDS011;11299;43.202;27.920;2022-07-15T12:21:13;5.75;;;1.45;;
22260;SDS011;11299;43.202;27.920;2022-07-15T12:23:39;6.72;;;1.75;;
22260;SDS011;11299;43.202;27.920;2022-07-15T12:26:09;4.43;;;1.50;;
22260;SDS011;11299;43.202;27.920;2022-07-15T12:28:35;2.60;;;1.50;;
22260;SDS011;11299;43.202;27.920;2022-07-15T12:31:02;3.70;;;1.85;;
22260;SDS011;11299;43.202;27.920;2022-07-15T12:33:32;1.88;;;1.40;;
22260;SDS011;11299;43.202;27.920;2022-07-15T12:36:14;3.33;;;1.50;;
22260;SDS011;11299;43.202;27.920;2022-07-15T12:38:44;6.20;;;1.30;;
22260;SDS011;11299;43.202;27.920;2022-07-15T12:41:32;2.88;;;1.70;;
22260;SDS011;11299;43.202;27.920;2022-07-15T12:43:57;3.63;;;1.73;;
22260;SDS011;11299;43.202;27.920;2022-07-15T12:46:58;4.10;;;1.80;;
22260;SDS011;11299;43.202;27.920;2022-07-15T12:54:45;3.80;;;1.60;;
22260;SDS011;11299;43.202;27.920;2022-07-15T12:57:21;2.33;;;1.60;;
22260;SDS011;11299;43.202;27.920;2022-07-15T13:02:29;1.30;;;1.00;;
22260;SDS011;11299;43.202;27.920;2022-07-15T13:04:54;2.50;;;1.50;;
22260;SDS011;11299;43.202;27.920;2022-07-15T13:07:20;2.10;;;1.20;;
22260;SDS011;11299;43.202;27.920;2022-07-15T13:09:46;5.40;;;1.50;;
22260;SDS011;11299;43.202;27.920;2022-07-15T13:12:12;2.10;;;1.10;;
22260;SDS011;11299;43.202;27.920;2022-07-15T13:14:38;2.45;;;1.30;;
22260;SDS011;11299;43.202;27.920;2022-07-15T13:17:05;4.60;;;1.75;;
22260;SDS011;11299;43.202;27.920;2022-07-15T13:19:31;5.05;;;1.50;;
22260;SDS011;11299;43.202;27.920;2022-07-15T13:22:00;3.50;;;1.58;;
22260;SDS011;11299;43.202;27.920;2022-07-15T13:24:26;2.85;;;1.33;;
22260;SDS011;11299;43.202;27.920;2022-07-15T13:26:52;6.63;;;1.75;;
22260;SDS011;11299;43.202;27.920;2022-07-15T13:29:18;2.88;;;1.20;;
22260;SDS011;11299;43.202;27.920;2022-07-15T13:31:44;2.15;;;1.40;;
22260;SDS011;11299;43.202;27.920;2022-07-15T13:34:09;5.05;;;1.55;;
22260;SDS011;11299;43.202;27.920;2022-07-15T13:36:35;2.03;;;1.10;;
22260;SDS011;11299;43.202;27.920;2022-07-15T13:39:01;3.00;;;1.40;;
22260;SDS011;11299;43.202;27.920;2022-07-15T13:41:28;3.17;;;1.20;;
22260;SDS011;11299;43.202;27.920;2022-07-15T13:43:53;4.43;;;1.35;;
22260;SDS011;11299;43.202;27.920;2022-07-15T13:46:19;2.00;;;1.40;;
22260;SDS011;11299;43.202;27.920;2022-07-15T13:48:44;4.80;;;1.48;;
22260;SDS011;11299;43.202;27.920;2022-07-15T13:51:10;3.83;;;1.52;;
22260;SDS011;11299;43.202;27.920;2022-07-15T13:53:48;2.00;;;1.27;;
22260;SDS011;11299;43.202;27.920;2022-07-15T13:56:14;4.80;;;1.42;;
22260;SDS011;11299;43.202;27.920;2022-07-15T13:58:39;5.70;;;1.63;;
22260;SDS011;11299;43.202;27.920;2022-07-15T14:01:05;3.83;;;1.70;;
22260;SDS011;11299;43.202;27.920;2022-07-15T14:03:31;6.95;;;3.90;;
22260;SDS011;11299;43.202;27.920;2022-07-15T14:05:57;4.57;;;1.42;;
22260;SDS011;11299;43.202;27.920;2022-07-15T14:08:22;3.25;;;1.25;;
22260;SDS011;11299;43.202;27.920;2022-07-15T14:10:48;3.60;;;1.80;;
22260;SDS011;11299;43.202;27.920;2022-07-15T14:13:13;4.50;;;1.48;;
22260;SDS011;11299;43.202;27.920;2022-07-15T14:15:39;3.97;;;1.30;;
22260;SDS011;11299;43.202;27.920;2022-07-15T14:18:05;4.75;;;1.77;;
22260;SDS011;11299;43.202;27.920;2022-07-15T14:20:31;2.85;;;1.38;;
22260;SDS011;11299;43.202;27.920;2022-07-15T14:22:57;2.90;;;1.30;;
22260;SDS011;11299;43.202;27.920;2022-07-15T14:25:23;2.88;;;1.15;;
22260;SDS011;11299;43.202;27.920;2022-07-15T14:27:49;1.85;;;1.33;;
22260;SDS011;11299;43.202;27.920;2022-07-15T14:30:14;3.90;;;1.48;;
22260;SDS011;11299;43.202;27.920;2022-07-15T14:32:41;4.00;;;1.70;;
22260;SDS011;11299;43.202;27.920;2022-07-15T14:35:07;4.43;;;1.83;;
22260;SDS011;11299;43.202;27.920;2022-07-15T14:37:33;4.85;;;2.45;;
22260;SDS011;11299;43.202;27.920;2022-07-15T14:39:59;6.88;;;2.35;;
22260;SDS011;11299;43.202;27.920;2022-07-15T14:42:24;5.88;;;2.33;;
22260;SDS011;11299;43.202;27.920;2022-07-15T14:44:50;4.25;;;2.08;;
22260;SDS011;11299;43.202;27.920;2022-07-15T14:47:16;4.88;;;3.28;;
22260;SDS011;11299;43.202;27.920;2022-07-15T14:49:42;4.93;;;1.75;;
22260;SDS011;11299;43.202;27.920;2022-07-15T14:52:07;6.38;;;1.85;;
22260;SDS011;11299;43.202;27.920;2022-07-15T14:54:33;4.00;;;1.33;;
22260;SDS011;11299;43.202;27.920;2022-07-15T14:56:58;6.32;;;1.30;;
22260;SDS011;11299;43.202;27.920;2022-07-15T14:59:24;3.35;;;1.90;;
22260;SDS011;11299;43.202;27.920;2022-07-15T15:01:49;2.83;;;1.27;;
22260;SDS011;11299;43.202;27.920;2022-07-15T15:04:16;2.60;;;1.52;;
22260;SDS011;11299;43.202;27.920;2022-07-15T15:06:42;4.65;;;1.80;;
22260;SDS011;11299;43.202;27.920;2022-07-15T15:09:07;3.13;;;1.65;;
22260;SDS011;11299;43.202;27.920;2022-07-15T15:11:33;4.32;;;1.70;;
22260;SDS011;11299;43.202;27.920;2022-07-15T15:13:58;7.15;;;1.80;;
22260;SDS011;11299;43.202;27.920;2022-07-15T15:16:26;1.75;;;1.20;;